createdAt,value
2023-05-11T00:00:25.500Z,12.96
2023-05-11T00:01:25.515Z,12.95
2023-05-11T00:02:25.489Z,12.93
2023-05-11T00:03:25.845Z,12.93
2023-05-11T00:04:25.490Z,12.92
2023-05-11T00:05:25.452Z,12.93
2023-05-11T00:06:25.413Z,12.92
2023-05-11T00:07:25.425Z,12.90
2023-05-11T00:08:25.371Z,12.89
2023-05-11T00:09:25.395Z,12.90
2023-05-11T00:10:25.367Z,12.90
2023-05-11T00:11:25.359Z,12.92
2023-05-11T00:12:25.347Z,12.92
2023-05-11T00:13:25.332Z,12.93
2023-05-11T00:14:25.314Z,12.96
2023-05-11T00:15:25.314Z,12.97
2023-05-11T00:16:25.324Z,12.97
2023-05-11T00:17:25.328Z,12.95
2023-05-11T00:18:25.267Z,12.95
2023-05-11T00:19:25.239Z,12.97
2023-05-11T00:20:25.252Z,12.97
2023-05-11T00:21:25.229Z,13.01
2023-05-11T00:22:25.211Z,13.00
2023-05-11T00:23:25.212Z,13.00
2023-05-11T00:24:25.152Z,13.00
2023-05-11T00:25:25.176Z,13.00
2023-05-11T00:26:25.161Z,13.00
2023-05-11T00:27:25.163Z,13.01
2023-05-11T00:28:25.111Z,13.01
2023-05-11T00:29:25.112Z,13.01
2023-05-11T00:30:25.100Z,13.00
2023-05-11T00:31:25.137Z,13.00
2023-05-11T00:32:25.107Z,13.00
2023-05-11T00:33:25.071Z,13.00
2023-05-11T00:34:25.025Z,13.01
2023-05-11T00:35:25.067Z,13.01
2023-05-11T00:36:25.004Z,13.01
2023-05-11T00:37:26.095Z,13.04
2023-05-11T00:38:24.971Z,13.03
2023-05-11T00:39:24.984Z,13.00
2023-05-11T00:40:24.988Z,13.00
2023-05-11T00:41:24.970Z,13.00
2023-05-11T00:42:24.934Z,12.97
2023-05-11T00:43:24.933Z,12.97
2023-05-11T00:44:24.893Z,12.97
2023-05-11T00:45:24.924Z,12.97
2023-05-11T00:46:24.887Z,12.97
2023-05-11T00:47:24.929Z,12.97
2023-05-11T00:48:24.843Z,13.00
2023-05-11T00:49:24.845Z,13.00
2023-05-11T00:50:24.874Z,13.01
2023-05-11T00:51:24.822Z,13.01
2023-05-11T00:52:24.794Z,13.00
2023-05-11T00:53:24.798Z,13.00
2023-05-11T00:54:24.760Z,12.96
2023-05-11T00:55:24.786Z,12.96
2023-05-11T00:56:24.720Z,12.96
2023-05-11T00:57:24.754Z,12.96
2023-05-11T00:58:24.716Z,12.96
2023-05-11T00:59:24.714Z,12.96
2023-05-11T01:00:24.673Z,12.95
2023-05-11T01:01:24.726Z,12.97
2023-05-11T01:02:24.720Z,12.97
2023-05-11T01:03:24.703Z,12.97
2023-05-11T01:04:24.650Z,12.97
2023-05-11T01:05:24.642Z,13.00
2023-05-11T01:06:24.613Z,13.00
2023-05-11T01:07:24.615Z,13.00
2023-05-11T01:08:24.590Z,12.96
2023-05-11T01:09:24.583Z,12.96
2023-05-11T01:10:24.588Z,12.93
2023-05-11T01:11:24.574Z,12.93
2023-05-11T01:12:24.566Z,12.92
2023-05-11T01:13:24.504Z,12.92
2023-05-11T01:14:24.536Z,12.92
2023-05-11T01:15:24.507Z,12.92
2023-05-11T01:16:24.729Z,12.92
2023-05-11T01:17:24.445Z,12.92
2023-05-11T01:18:24.478Z,12.89
2023-05-11T01:19:24.452Z,12.89
2023-05-11T01:20:24.438Z,12.87
2023-05-11T01:21:24.391Z,12.86
2023-05-11T01:22:24.414Z,12.85
2023-05-11T01:23:24.360Z,12.85
2023-05-11T01:24:24.407Z,12.85
2023-05-11T01:25:24.355Z,12.82
2023-05-11T01:26:24.368Z,12.82
2023-05-11T01:27:24.322Z,12.79
2023-05-11T01:28:24.336Z,12.79
2023-05-11T01:29:24.329Z,12.79
2023-05-11T01:30:24.298Z,12.79
2023-05-11T01:31:24.294Z,12.78
2023-05-11T01:32:24.306Z,12.78
2023-05-11T01:33:24.238Z,12.77
2023-05-11T01:34:24.274Z,12.77
2023-05-11T01:35:24.210Z,12.72
2023-05-11T01:36:24.236Z,12.70
2023-05-11T01:37:24.234Z,12.70
2023-05-11T01:38:24.194Z,12.68
2023-05-11T01:39:24.185Z,12.68
2023-05-11T01:40:24.178Z,12.70
2023-05-11T01:41:24.168Z,12.71
2023-05-11T01:42:24.164Z,12.72
2023-05-11T01:43:24.099Z,12.72
2023-05-11T01:44:24.118Z,12.75
2023-05-11T01:45:24.114Z,12.75
2023-05-11T01:46:24.159Z,12.78
2023-05-11T01:47:24.083Z,12.77
2023-05-11T01:48:24.064Z,12.78
2023-05-11T01:49:24.036Z,12.77
2023-05-11T01:50:24.050Z,12.78
2023-05-11T01:51:24.013Z,12.78
2023-05-11T01:52:24.003Z,12.78
2023-05-11T01:53:23.970Z,12.78
2023-05-11T01:54:24.013Z,12.77
2023-05-11T01:55:23.963Z,12.78
2023-05-11T01:56:23.958Z,12.78
2023-05-11T01:57:23.922Z,12.78
2023-05-11T01:58:23.925Z,12.78
2023-05-11T01:59:23.879Z,12.78
2023-05-11T02:00:23.930Z,12.77
2023-05-11T02:01:23.913Z,12.78
2023-05-11T02:02:23.906Z,12.72
2023-05-11T02:03:23.913Z,12.71
2023-05-11T02:04:23.861Z,12.71
2023-05-11T02:05:24.932Z,12.70
2023-05-11T02:06:23.844Z,12.70
2023-05-11T02:07:23.802Z,12.68
2023-05-11T02:08:23.810Z,12.62
2023-05-11T02:09:23.757Z,12.62
2023-05-11T02:10:23.767Z,12.62
2023-05-11T02:11:23.746Z,12.60
2023-05-11T02:12:23.742Z,12.59
2023-05-11T02:13:23.750Z,12.56
2023-05-11T02:14:23.743Z,12.57
2023-05-11T02:15:23.677Z,12.56
2023-05-11T02:16:23.871Z,12.54
2023-05-11T02:17:23.712Z,12.53
2023-05-11T02:18:23.764Z,12.53
2023-05-11T02:19:23.627Z,12.50
2023-05-11T02:20:23.628Z,12.49
2023-05-11T02:21:23.600Z,12.46
2023-05-11T02:22:23.625Z,12.45
2023-05-11T02:23:23.599Z,12.42
2023-05-11T02:24:23.582Z,12.46
2023-05-11T02:25:23.546Z,12.46
2023-05-11T02:26:23.558Z,12.47
2023-05-11T02:27:23.527Z,12.49
2023-05-11T02:28:23.596Z,12.52
2023-05-11T02:29:23.491Z,12.52
2023-05-11T02:30:23.533Z,12.53
2023-05-11T02:31:23.496Z,12.52
2023-05-11T02:32:23.542Z,12.53
2023-05-11T02:33:23.458Z,12.53
2023-05-11T02:34:23.461Z,12.53
2023-05-11T02:35:23.412Z,12.52
2023-05-11T02:36:23.453Z,12.52
2023-05-11T02:37:23.384Z,12.53
2023-05-11T02:38:23.393Z,12.52
2023-05-11T02:39:23.370Z,12.52
2023-05-11T02:40:23.418Z,12.53
2023-05-11T02:41:23.335Z,12.52
2023-05-11T02:42:23.341Z,12.53
2023-05-11T02:43:23.311Z,12.50
2023-05-11T02:44:23.337Z,12.49
2023-05-11T02:45:23.334Z,12.50
2023-05-11T02:46:23.305Z,12.50
2023-05-11T02:47:23.291Z,12.49
2023-05-11T02:48:23.269Z,12.42
2023-05-11T02:49:23.229Z,12.39
2023-05-11T02:50:23.253Z,12.38
2023-05-11T02:51:23.196Z,12.37
2023-05-11T02:52:23.210Z,12.35
2023-05-11T02:53:23.158Z,12.32
2023-05-11T02:54:23.212Z,12.31
2023-05-11T02:55:23.184Z,12.29
2023-05-11T02:56:23.151Z,12.28
2023-05-11T02:57:23.111Z,12.24
2023-05-11T02:58:23.197Z,12.24
2023-05-11T02:59:23.090Z,12.23
2023-05-11T03:00:23.275Z,12.20
2023-05-11T03:01:23.160Z,12.17
2023-05-11T03:02:23.199Z,12.17
2023-05-11T03:03:23.159Z,12.17
2023-05-11T03:04:23.055Z,12.17
2023-05-11T03:05:23.036Z,12.14
2023-05-11T03:06:23.027Z,12.14
2023-05-11T03:07:22.980Z,12.12
2023-05-11T03:08:23.018Z,12.13
2023-05-11T03:09:22.975Z,12.12
2023-05-11T03:10:23.005Z,12.10
2023-05-11T03:11:22.922Z,12.10
2023-05-11T03:12:22.937Z,12.07
2023-05-11T03:13:22.940Z,12.07
2023-05-11T03:14:22.921Z,12.05
2023-05-11T03:15:22.886Z,12.04
2023-05-11T03:16:22.939Z,12.02
2023-05-11T03:17:22.904Z,12.02
2023-05-11T03:18:22.936Z,12.01
2023-05-11T03:19:22.840Z,12.01
2023-05-11T03:20:22.831Z,11.99
2023-05-11T03:21:22.792Z,11.96
2023-05-11T03:22:22.875Z,11.96
2023-05-11T03:23:22.768Z,11.96
2023-05-11T03:24:22.917Z,11.95
2023-05-11T03:25:22.772Z,11.95
2023-05-11T03:26:22.818Z,11.91
2023-05-11T03:27:22.720Z,11.86
2023-05-11T03:28:22.749Z,11.88
2023-05-11T03:29:22.731Z,11.86
2023-05-11T03:30:22.729Z,11.86
2023-05-11T03:31:22.708Z,11.85
2023-05-11T03:32:22.939Z,11.85
2023-05-11T03:33:22.642Z,11.86
2023-05-11T03:34:22.688Z,11.86
2023-05-11T03:35:22.624Z,11.88
2023-05-11T03:36:22.631Z,11.86
2023-05-11T03:37:22.648Z,11.85
2023-05-11T03:38:22.598Z,11.86
2023-05-11T03:39:22.577Z,11.90
2023-05-11T03:40:22.585Z,11.94
2023-05-11T03:41:22.592Z,11.91
2023-05-11T03:42:22.553Z,11.91
2023-05-11T03:43:22.522Z,11.96
2023-05-11T03:44:22.571Z,11.96
2023-05-11T03:45:22.506Z,11.98
2023-05-11T03:46:22.550Z,11.99
2023-05-11T03:47:22.495Z,11.95
2023-05-11T03:48:22.477Z,11.90
2023-05-11T03:49:22.466Z,11.88
2023-05-11T03:50:22.450Z,11.90
2023-05-11T03:51:22.411Z,11.91
2023-05-11T03:52:22.434Z,11.90
2023-05-11T03:53:22.370Z,11.86
2023-05-11T03:54:22.411Z,11.86
2023-05-11T03:55:22.372Z,11.83
2023-05-11T03:56:22.366Z,11.83
2023-05-11T03:57:22.353Z,11.85
2023-05-11T03:58:22.357Z,11.86
2023-05-11T03:59:22.305Z,11.86
2023-05-11T04:00:22.319Z,11.86
2023-05-11T04:01:22.283Z,11.85
2023-05-11T04:02:22.398Z,11.83
2023-05-11T04:03:22.398Z,11.82
2023-05-11T04:04:22.266Z,11.82
2023-05-11T04:05:22.217Z,11.83
2023-05-11T04:06:22.239Z,11.83
2023-05-11T04:07:22.191Z,11.88
2023-05-11T04:08:22.229Z,11.86
2023-05-11T04:09:22.165Z,11.86
2023-05-11T04:10:22.211Z,11.88
2023-05-11T04:11:22.176Z,11.88
2023-05-11T04:12:22.150Z,11.91
2023-05-11T04:13:22.122Z,11.91
2023-05-11T04:14:22.119Z,11.91
2023-05-11T04:15:22.100Z,11.88
2023-05-11T04:16:22.135Z,11.86
2023-05-11T04:17:22.100Z,11.85
2023-05-11T04:18:22.086Z,11.83
2023-05-11T04:19:22.037Z,11.85
2023-05-11T04:20:22.066Z,11.83
2023-05-11T04:21:22.038Z,11.83
2023-05-11T04:22:22.038Z,11.83
2023-05-11T04:23:21.986Z,11.85
2023-05-11T04:24:22.020Z,11.83
2023-05-11T04:25:21.948Z,11.79
2023-05-11T04:26:21.975Z,11.79
2023-05-11T04:27:21.922Z,11.80
2023-05-11T04:28:21.948Z,11.83
2023-05-11T04:29:21.919Z,11.85
2023-05-11T04:30:22.109Z,11.83
2023-05-11T04:31:21.896Z,11.83
2023-05-11T04:32:21.899Z,11.83
2023-05-11T04:33:21.873Z,11.83
2023-05-11T04:34:21.855Z,11.86
2023-05-11T04:35:21.844Z,11.86
2023-05-11T04:36:21.848Z,11.90
2023-05-11T04:37:21.812Z,11.90
2023-05-11T04:38:21.818Z,11.90
2023-05-11T04:39:21.755Z,11.91
2023-05-11T04:40:21.773Z,11.88
2023-05-11T04:41:21.770Z,11.90
2023-05-11T04:42:21.778Z,11.90
2023-05-11T04:43:21.715Z,11.91
2023-05-11T04:44:21.723Z,11.90
2023-05-11T04:45:21.703Z,11.91
2023-05-11T04:46:21.722Z,11.90
2023-05-11T04:47:21.739Z,11.94
2023-05-11T04:48:21.699Z,11.91
2023-05-11T04:49:21.632Z,11.94
2023-05-11T04:50:21.656Z,11.94
2023-05-11T04:51:21.602Z,11.91
2023-05-11T04:52:21.629Z,11.94
2023-05-11T04:53:21.584Z,11.95
2023-05-11T04:54:21.619Z,11.95
2023-05-11T04:55:21.572Z,11.96
2023-05-11T04:56:21.560Z,12.01
2023-05-11T04:57:21.526Z,11.99
2023-05-11T04:58:21.559Z,12.01
2023-05-11T04:59:21.505Z,11.99
2023-05-11T05:00:21.839Z,11.95
2023-05-11T05:01:21.545Z,11.95
2023-05-11T05:02:21.533Z,11.96
2023-05-11T05:03:21.465Z,11.99
2023-05-11T05:04:21.504Z,11.96
2023-05-11T05:05:21.440Z,11.98
2023-05-11T05:06:21.430Z,11.98
2023-05-11T05:07:21.406Z,11.99
2023-05-11T05:08:21.417Z,11.99
2023-05-11T05:09:21.382Z,12.01
2023-05-11T05:10:21.377Z,12.01
2023-05-11T05:11:21.344Z,12.01
2023-05-11T05:12:21.350Z,11.99
2023-05-11T05:13:21.338Z,11.99
2023-05-11T05:14:21.329Z,11.99
2023-05-11T05:15:21.301Z,11.99
2023-05-11T05:16:21.377Z,11.95
2023-05-11T05:17:21.267Z,11.88
2023-05-11T05:18:21.332Z,11.88
2023-05-11T05:19:21.241Z,11.90
2023-05-11T05:20:21.261Z,11.88
2023-05-11T05:21:21.205Z,11.90
2023-05-11T05:22:21.217Z,11.91
2023-05-11T05:23:21.183Z,11.94
2023-05-11T05:24:21.200Z,11.90
2023-05-11T05:25:21.197Z,11.88
2023-05-11T05:26:21.164Z,11.86
2023-05-11T05:27:21.123Z,11.86
2023-05-11T05:28:21.159Z,11.86
2023-05-11T05:29:21.161Z,11.86
2023-05-11T05:30:21.205Z,11.90
2023-05-11T05:31:21.161Z,11.94
2023-05-11T05:32:21.079Z,11.91
2023-05-11T05:33:21.071Z,11.90
2023-05-11T05:34:21.088Z,11.94
2023-05-11T05:35:21.072Z,11.91
2023-05-11T05:36:21.006Z,11.94
2023-05-11T05:37:21.028Z,11.94
2023-05-11T05:38:21.016Z,11.95
2023-05-11T05:39:20.992Z,11.94
2023-05-11T05:40:21.226Z,11.91
2023-05-11T05:41:20.991Z,11.91
2023-05-11T05:42:20.932Z,11.90
2023-05-11T05:43:20.939Z,11.90
2023-05-11T05:44:20.907Z,11.86
2023-05-11T05:45:20.934Z,11.88
2023-05-11T05:46:20.937Z,11.88
2023-05-11T05:47:20.920Z,11.90
2023-05-11T05:48:20.857Z,11.91
2023-05-11T05:49:20.885Z,11.94
2023-05-11T05:50:20.849Z,11.94
2023-05-11T05:51:20.872Z,11.91
2023-05-11T05:52:20.792Z,11.94
2023-05-11T05:53:20.816Z,11.94
2023-05-11T05:54:20.822Z,11.96
2023-05-11T05:55:20.797Z,11.96
2023-05-11T05:56:20.763Z,11.96
2023-05-11T05:57:20.763Z,11.96
2023-05-11T05:58:20.736Z,11.95
2023-05-11T05:59:20.868Z,11.98
2023-05-11T06:00:20.884Z,11.99
2023-05-11T06:01:20.703Z,12.04
2023-05-11T06:02:20.808Z,12.04
2023-05-11T06:03:20.751Z,12.05
2023-05-11T06:04:20.696Z,12.07
2023-05-11T06:05:20.666Z,12.09
2023-05-11T06:06:20.616Z,12.10
2023-05-11T06:07:20.647Z,12.12
2023-05-11T06:08:20.591Z,12.12
2023-05-11T06:09:20.601Z,12.13
2023-05-11T06:10:20.678Z,12.16
2023-05-11T06:11:20.565Z,12.17
2023-05-11T06:12:20.535Z,12.16
2023-05-11T06:13:20.709Z,12.16
2023-05-11T06:14:20.510Z,12.16
2023-05-11T06:15:20.548Z,12.16
2023-05-11T06:16:20.503Z,12.17
2023-05-11T06:17:20.513Z,12.20
2023-05-11T06:18:20.511Z,12.24
2023-05-11T06:19:20.492Z,12.29
2023-05-11T06:20:20.559Z,12.32
2023-05-11T06:21:20.457Z,12.34
2023-05-11T06:22:20.442Z,12.37
2023-05-11T06:23:20.432Z,12.37
2023-05-11T06:24:20.398Z,12.39
2023-05-11T06:25:20.395Z,12.39
2023-05-11T06:26:20.337Z,12.42
2023-05-11T06:27:20.351Z,12.47
2023-05-11T06:28:20.320Z,12.50
2023-05-11T06:29:20.349Z,12.52
2023-05-11T06:30:20.509Z,12.47
2023-05-11T06:31:20.440Z,12.46
2023-05-11T06:32:20.304Z,12.42
2023-05-11T06:33:20.287Z,12.42
2023-05-11T06:34:20.268Z,12.45
2023-05-11T06:35:20.270Z,12.45
2023-05-11T06:36:20.221Z,12.41
2023-05-11T06:37:20.240Z,12.42
2023-05-11T06:38:20.230Z,12.45
2023-05-11T06:39:20.224Z,12.45
2023-05-11T06:40:20.427Z,12.47
2023-05-11T06:41:20.178Z,12.49
2023-05-11T06:42:20.121Z,12.52
2023-05-11T06:43:20.161Z,12.53
2023-05-11T06:44:20.154Z,12.53
2023-05-11T06:45:20.154Z,12.56
2023-05-11T06:46:20.176Z,12.59
2023-05-11T06:47:20.085Z,12.56
2023-05-11T06:48:20.078Z,12.56
2023-05-11T06:49:20.073Z,12.57
2023-05-11T06:50:21.444Z,12.54
2023-05-11T06:51:20.059Z,12.54
2023-05-11T06:52:19.995Z,12.53
2023-05-11T06:53:20.010Z,12.50
2023-05-11T06:54:19.989Z,12.53
2023-05-11T06:55:19.984Z,12.53
2023-05-11T06:56:19.981Z,12.53
2023-05-11T06:57:19.962Z,12.53
2023-05-11T06:58:19.964Z,12.57
2023-05-11T06:59:19.937Z,12.59
2023-05-11T07:00:20.093Z,12.64
2023-05-11T07:01:19.964Z,12.67
2023-05-11T07:02:19.922Z,12.71
2023-05-11T07:03:19.912Z,12.72
2023-05-11T07:04:19.914Z,12.77
2023-05-11T07:05:19.881Z,12.79
2023-05-11T07:06:19.824Z,12.82
2023-05-11T07:07:19.837Z,12.82
2023-05-11T07:08:19.843Z,12.82
2023-05-11T07:09:19.799Z,12.83
2023-05-11T07:10:20.038Z,12.85
2023-05-11T07:11:19.767Z,12.87
2023-05-11T07:12:19.721Z,12.87
2023-05-11T07:13:19.775Z,12.85
2023-05-11T07:14:19.716Z,12.83
2023-05-11T07:15:19.746Z,12.85
2023-05-11T07:16:19.703Z,12.83
2023-05-11T07:17:19.789Z,12.86
2023-05-11T07:18:19.682Z,12.89
2023-05-11T07:19:19.693Z,12.85
2023-05-11T07:20:19.947Z,12.86
2023-05-11T07:21:19.638Z,12.89
2023-05-11T07:22:19.607Z,12.92
2023-05-11T07:23:19.621Z,12.95
2023-05-11T07:24:19.605Z,12.96
2023-05-11T07:25:19.582Z,12.97
2023-05-11T07:26:19.570Z,13.01
2023-05-11T07:27:19.563Z,13.05
2023-05-11T07:28:19.525Z,13.07
2023-05-11T07:29:19.590Z,13.10
2023-05-11T07:30:19.775Z,13.11
2023-05-11T07:31:19.515Z,13.12
2023-05-11T07:32:19.471Z,13.14
2023-05-11T07:33:19.470Z,13.14
2023-05-11T07:34:19.482Z,13.14
2023-05-11T07:35:20.074Z,13.17
2023-05-11T07:36:19.427Z,13.20
2023-05-11T07:37:19.413Z,13.19
2023-05-11T07:38:19.394Z,13.22
2023-05-11T07:39:19.415Z,13.23
2023-05-11T07:40:19.735Z,13.26
2023-05-11T07:41:19.407Z,13.29
2023-05-11T07:42:19.343Z,13.30
2023-05-11T07:43:19.356Z,13.33
2023-05-11T07:44:19.306Z,13.36
2023-05-11T07:45:19.327Z,13.36
2023-05-11T07:46:19.402Z,13.36
2023-05-11T07:47:19.296Z,13.36
2023-05-11T07:48:19.280Z,13.38
2023-05-11T07:49:25.420Z,13.36
2023-05-11T07:50:19.401Z,13.33
2023-05-11T07:51:19.261Z,13.38
2023-05-11T07:52:19.197Z,13.38
2023-05-11T07:53:19.244Z,13.41
2023-05-11T07:54:21.000Z,13.39
2023-05-11T07:55:19.425Z,13.39
2023-05-11T07:56:19.192Z,13.38
2023-05-11T07:57:19.166Z,13.38
2023-05-11T07:58:19.149Z,13.33
2023-05-11T07:59:19.131Z,13.30
2023-05-11T08:00:19.278Z,13.33
2023-05-11T08:01:19.122Z,13.33
2023-05-11T08:02:19.258Z,13.36
2023-05-11T08:03:19.101Z,13.38
2023-05-11T08:04:19.035Z,13.39
2023-05-11T08:05:19.298Z,13.41
2023-05-11T08:06:19.163Z,13.44
2023-05-11T08:07:19.055Z,13.39
2023-05-11T08:08:19.012Z,13.41
2023-05-11T08:09:19.022Z,13.42
2023-05-11T08:10:19.000Z,13.45
2023-05-11T08:11:18.979Z,13.45
2023-05-11T08:12:18.943Z,13.46
2023-05-11T08:13:18.980Z,13.51
2023-05-11T08:14:18.920Z,13.51
2023-05-11T08:15:19.173Z,13.49
2023-05-11T08:16:18.920Z,13.54
2023-05-11T08:17:18.901Z,13.57
2023-05-11T08:18:18.913Z,13.60
2023-05-11T08:19:18.875Z,13.62
2023-05-11T08:20:18.841Z,13.63
2023-05-11T08:21:18.847Z,13.64
2023-05-11T08:22:18.846Z,13.62
2023-05-11T08:23:18.813Z,13.63
2023-05-11T08:24:18.786Z,13.62
2023-05-11T08:25:19.053Z,13.63
2023-05-11T08:26:18.760Z,13.64
2023-05-11T08:27:18.783Z,13.66
2023-05-11T08:28:18.731Z,13.69
2023-05-11T08:29:18.740Z,13.64
2023-05-11T08:30:18.706Z,13.63
2023-05-11T08:31:18.868Z,13.63
2023-05-11T08:32:18.706Z,13.64
2023-05-11T08:33:35.967Z,13.66
2023-05-11T08:34:20.211Z,13.67
2023-05-11T08:35:18.843Z,13.69
2023-05-11T08:36:18.619Z,13.71
2023-05-11T08:37:18.653Z,13.73
2023-05-11T08:38:18.606Z,13.75
2023-05-11T08:39:28.598Z,13.71
2023-05-11T08:40:18.590Z,13.73
2023-05-11T08:41:18.594Z,13.77
2023-05-11T08:42:18.546Z,13.77
2023-05-11T08:43:18.552Z,13.77
2023-05-11T08:44:18.509Z,13.77
2023-05-11T08:45:18.759Z,13.78
2023-05-11T08:46:18.545Z,13.78
2023-05-11T08:47:23.139Z,13.78
2023-05-11T08:48:18.486Z,13.77
2023-05-11T08:49:18.477Z,13.77
2023-05-11T08:50:18.447Z,13.75
2023-05-11T08:51:18.441Z,13.78
2023-05-11T08:52:18.431Z,13.79
2023-05-11T08:53:18.458Z,13.79
2023-05-11T08:54:18.373Z,13.82
2023-05-11T08:55:18.634Z,13.81
2023-05-11T08:56:18.358Z,13.84
2023-05-11T08:57:18.409Z,13.85
2023-05-11T08:58:18.368Z,13.89
2023-05-11T08:59:18.332Z,13.95
2023-05-11T09:00:18.312Z,13.97
2023-05-11T09:01:18.344Z,14.02
2023-05-11T09:02:18.285Z,14.00
2023-05-11T09:03:18.299Z,14.00
2023-05-11T09:04:18.239Z,14.02
2023-05-11T09:05:18.494Z,14.03
2023-05-11T09:06:18.222Z,14.00
2023-05-11T09:07:18.362Z,14.00
2023-05-11T09:08:18.190Z,14.02
2023-05-11T09:09:18.236Z,14.07
2023-05-11T09:10:18.163Z,14.12
2023-05-11T09:11:18.176Z,14.12
2023-05-11T09:12:18.168Z,14.12
2023-05-11T09:13:18.181Z,14.10
2023-05-11T09:14:18.117Z,14.14
2023-05-11T09:15:18.163Z,14.17
2023-05-11T09:16:35.710Z,14.12
2023-05-11T09:17:18.102Z,14.09
2023-05-11T09:18:18.073Z,14.03
2023-05-11T09:19:18.085Z,14.03
2023-05-11T09:20:18.226Z,14.04
2023-05-11T09:21:18.079Z,14.06
2023-05-11T09:22:18.022Z,14.09
2023-05-11T09:23:18.034Z,14.10
2023-05-11T09:24:17.982Z,14.14
2023-05-11T09:25:18.382Z,14.15
2023-05-11T09:26:17.963Z,14.18
2023-05-11T09:27:21.277Z,14.18
2023-05-11T09:28:25.479Z,14.21
2023-05-11T09:29:17.961Z,14.22
2023-05-11T09:31:17.955Z,14.29
2023-05-11T09:32:17.885Z,14.29
2023-05-11T09:33:17.885Z,14.32
2023-05-11T09:34:17.859Z,14.35
2023-05-11T09:35:18.135Z,14.37
2023-05-11T09:36:17.853Z,14.39
2023-05-11T09:37:17.869Z,14.36
2023-05-11T09:38:17.810Z,14.36
2023-05-11T09:40:26.890Z,14.42
2023-05-11T09:41:17.830Z,14.43
2023-05-11T09:42:17.760Z,14.43
2023-05-11T09:43:17.759Z,14.40
2023-05-11T09:44:17.746Z,14.39
2023-05-11T09:45:17.897Z,14.43
2023-05-11T09:46:17.772Z,14.45
2023-05-11T09:47:17.690Z,14.46
2023-05-11T09:48:17.725Z,14.47
2023-05-11T09:49:17.644Z,14.50
2023-05-11T09:50:18.291Z,14.50
2023-05-11T09:51:17.646Z,14.51
2023-05-11T09:52:17.656Z,14.51
2023-05-11T09:53:17.636Z,14.51
2023-05-11T09:54:17.630Z,14.50
2023-05-11T09:55:17.796Z,14.46
2023-05-11T09:56:17.597Z,14.45
2023-05-11T09:57:17.569Z,14.40
2023-05-11T09:58:17.582Z,14.39
2023-05-11T09:59:17.544Z,14.37
2023-05-11T10:00:17.534Z,14.39
2023-05-11T10:01:17.545Z,14.42
2023-05-11T10:02:17.568Z,14.43
2023-05-11T10:03:17.612Z,14.47
2023-05-11T10:04:25.530Z,14.52
2023-05-11T10:05:17.640Z,14.54
2023-05-11T10:06:19.915Z,14.55
2023-05-11T10:07:17.408Z,14.58
2023-05-11T10:08:17.434Z,14.55
2023-05-11T10:09:17.429Z,14.55
2023-05-11T10:10:17.399Z,14.57
2023-05-11T10:11:17.395Z,14.58
2023-05-11T10:12:17.436Z,14.58
2023-05-11T10:13:17.349Z,14.58
2023-05-11T10:14:17.396Z,14.60
2023-05-11T10:15:17.533Z,14.62
2023-05-11T10:16:17.350Z,14.64
2023-05-11T10:17:17.283Z,14.62
2023-05-11T10:18:19.540Z,14.64
2023-05-11T10:19:17.299Z,14.61
2023-05-11T10:20:17.323Z,14.60
2023-05-11T10:21:17.231Z,14.61
2023-05-11T10:22:17.276Z,14.64
2023-05-11T10:23:17.236Z,14.65
2023-05-11T10:24:18.962Z,14.65
2023-05-11T10:25:17.251Z,14.68
2023-05-11T10:26:17.175Z,14.64
2023-05-11T10:27:17.187Z,14.61
2023-05-11T10:28:17.172Z,14.60
2023-05-11T10:29:17.154Z,14.60
2023-05-11T10:30:17.285Z,14.60
2023-05-11T10:31:17.164Z,14.61
2023-05-11T10:32:17.113Z,14.61
2023-05-11T10:33:17.096Z,14.61
2023-05-11T10:34:17.064Z,14.62
2023-05-11T10:35:17.087Z,14.65
2023-05-11T10:36:19.261Z,14.64
2023-05-11T10:37:17.070Z,14.64
2023-05-11T10:38:17.049Z,14.68
2023-05-11T10:39:17.018Z,14.69
2023-05-11T10:40:17.042Z,14.70
2023-05-11T10:41:16.990Z,14.75
2023-05-11T10:42:16.937Z,14.80
2023-05-11T10:43:16.980Z,14.86
2023-05-11T10:44:16.949Z,14.91
2023-05-11T10:45:16.940Z,14.94
2023-05-11T10:46:16.965Z,14.98
2023-05-11T10:47:16.952Z,14.99
2023-05-11T10:48:16.860Z,15.02
2023-05-11T10:49:16.884Z,15.06
2023-05-11T10:50:17.039Z,15.10
2023-05-11T10:51:16.880Z,15.10
2023-05-11T10:52:16.835Z,15.07
2023-05-11T10:53:16.856Z,15.02
2023-05-11T10:54:16.811Z,15.03
2023-05-11T10:55:17.000Z,15.07
2023-05-11T10:56:16.775Z,15.13
2023-05-11T10:57:16.769Z,15.13
2023-05-11T10:58:16.731Z,15.14
2023-05-11T10:59:16.799Z,15.14
2023-05-11T11:00:16.834Z,15.16
2023-05-11T11:01:16.763Z,15.21
2023-05-11T11:02:16.687Z,15.19
2023-05-11T11:03:16.726Z,15.17
2023-05-11T11:04:16.671Z,15.21
2023-05-11T11:05:16.821Z,15.28
2023-05-11T11:06:16.631Z,15.34
2023-05-11T11:07:16.642Z,15.38
2023-05-11T11:08:16.638Z,15.41
2023-05-11T11:09:16.675Z,15.43
2023-05-11T11:10:16.672Z,15.41
2023-05-11T11:11:16.585Z,15.44
2023-05-11T11:12:16.545Z,15.46
2023-05-11T11:13:16.568Z,15.43
2023-05-11T11:14:16.589Z,15.44
2023-05-11T11:15:16.899Z,15.46
2023-05-11T11:16:16.814Z,15.49
2023-05-11T11:17:16.687Z,15.54
2023-05-11T11:18:16.486Z,15.56
2023-05-11T11:19:16.521Z,15.60
2023-05-11T11:20:16.461Z,15.59
2023-05-11T11:21:16.456Z,15.62
2023-05-11T11:22:16.452Z,15.65
2023-05-11T11:23:16.471Z,15.64
2023-05-11T11:24:16.402Z,15.62
2023-05-11T11:25:16.517Z,15.59
2023-05-11T11:26:16.373Z,15.56
2023-05-11T11:27:16.395Z,15.51
2023-05-11T11:28:16.356Z,15.56
2023-05-11T11:29:16.392Z,15.54
2023-05-11T11:30:16.331Z,15.54
2023-05-11T11:31:16.354Z,15.56
2023-05-11T11:32:16.292Z,15.56
2023-05-11T11:33:16.372Z,15.59
2023-05-11T11:34:16.257Z,15.60
2023-05-11T11:35:16.370Z,15.65
2023-05-11T11:36:16.264Z,15.64
2023-05-11T11:37:16.339Z,15.62
2023-05-11T11:38:16.203Z,15.56
2023-05-11T11:39:16.250Z,15.57
2023-05-11T11:40:16.200Z,15.60
2023-05-11T11:41:16.216Z,15.64
2023-05-11T11:42:16.172Z,15.67
2023-05-11T11:43:16.197Z,15.67
2023-05-11T11:44:16.150Z,15.67
2023-05-11T11:45:16.262Z,15.72
2023-05-11T11:46:16.143Z,15.75
2023-05-11T11:47:16.127Z,15.76
2023-05-11T11:48:16.150Z,15.78
2023-05-11T11:49:16.151Z,15.80
2023-05-11T11:50:16.081Z,15.80
2023-05-11T11:51:16.053Z,15.84
2023-05-11T11:52:16.024Z,15.86
2023-05-11T11:53:16.044Z,15.87
2023-05-11T11:54:16.018Z,15.87
2023-05-11T11:55:16.089Z,15.84
2023-05-11T11:56:16.011Z,15.82
2023-05-11T11:57:15.990Z,15.83
2023-05-11T11:58:15.960Z,15.84
2023-05-11T11:59:16.005Z,15.90
2023-05-11T12:00:15.936Z,15.94
2023-05-11T12:01:15.933Z,15.97
2023-05-11T12:02:15.902Z,16.00
2023-05-11T12:03:16.037Z,15.97
2023-05-11T12:04:16.181Z,15.97
2023-05-11T12:05:15.954Z,15.97
2023-05-11T12:06:15.859Z,16.02
2023-05-11T12:07:15.885Z,16.04
2023-05-11T12:08:15.823Z,16.07
2023-05-11T12:09:15.825Z,16.02
2023-05-11T12:10:15.842Z,16.02
2023-05-11T12:11:15.850Z,16.05
2023-05-11T12:12:15.770Z,16.09
2023-05-11T12:13:15.766Z,16.12
2023-05-11T12:14:15.732Z,16.11
2023-05-11T12:15:15.799Z,16.09
2023-05-11T12:16:15.759Z,16.05
2023-05-11T12:17:15.751Z,16.02
2023-05-11T12:18:15.699Z,16.05
2023-05-11T12:19:15.739Z,16.12
2023-05-11T12:20:15.662Z,16.20
2023-05-11T12:21:15.673Z,16.23
2023-05-11T12:22:15.666Z,16.27
2023-05-11T12:23:15.652Z,16.33
2023-05-11T12:24:15.602Z,16.39
2023-05-11T12:25:15.668Z,16.39
2023-05-11T12:26:15.570Z,16.34
2023-05-11T12:27:15.625Z,16.34
2023-05-11T12:28:15.551Z,16.38
2023-05-11T12:29:15.652Z,16.43
2023-05-11T12:30:15.526Z,16.45
2023-05-11T12:31:15.613Z,16.46
2023-05-11T12:32:15.568Z,16.50
2023-05-11T12:33:15.572Z,16.52
2023-05-11T12:34:15.497Z,16.52
2023-05-11T12:35:15.494Z,16.42
2023-05-11T12:36:15.489Z,16.17
2023-05-11T12:37:15.508Z,16.14
2023-05-11T12:38:15.427Z,16.17
2023-05-11T12:39:15.426Z,16.20
2023-05-11T12:40:15.387Z,16.21
2023-05-11T12:41:15.409Z,16.30
2023-05-11T12:42:15.411Z,16.35
2023-05-11T12:43:15.392Z,16.43
2023-05-11T12:44:15.358Z,16.52
2023-05-11T12:45:15.376Z,16.53
2023-05-11T12:46:15.349Z,16.56
2023-05-11T12:47:15.355Z,16.56
2023-05-11T12:48:15.400Z,16.46
2023-05-11T12:49:15.312Z,16.33
2023-05-11T12:50:15.268Z,16.25
2023-05-11T12:51:15.280Z,16.23
2023-05-11T12:52:15.277Z,16.28
2023-05-11T12:53:15.248Z,16.27
2023-05-11T12:54:15.206Z,16.30